Ana Sayfa
METAR-TAF:

METAR-TAF

Havaalanları :

Moroni, Komor Adaları

Enlem: 11-32S, Boylam: 043-16E, yükseklik: 29 m

Güncel hava durumu gözlemi

Rapor saat 18:00 UTC de 1 saat ve 9 dakika önce yapıldı.
Rüzgar doğu/güneydoğudan 8 kt
Sıcaklık 27°C
Nem 74%
Basınç 1015 hPa
Görüş mesafesi 10 km veya daha fazla
2000 ft yükseklikte az bulutlu

METAR: FMCH 071800Z 12008KT 9999 FEW020 27/22 Q1015 NOSIG

Saat: 22:09 (19:09 UTC)

Tahmin

Rapor saat 17:00 UTC de 2 saat ve 9 dakika önce yapıldı.
Ayın 07'si saat 18 UTC'den ayın 08'si saat 24 UTC'ye kadar geçerli Tahmin
Rüzgar doğu/güneydoğudan 4 kt
Görüş mesafesi 10 km veya daha fazla
2000 ft yükseklikte az bulutlu
Dönüşüyor
ayın 08'si saat 04 UTC'den ayın 08'si saat 06 UTC'ye kadar
Rüzgar güneydoğudan 12 kt
Dönüşüyor
ayın 08'si saat 15 UTC'den ayın 08'si saat 17 UTC'ye kadar
Rüzgar doğudan 3 kt

TAF: FMCH 071700Z 0718/0824 11004KT 9999 FEW020 BECMG 0804/0806 14012KT BECMG 0815/0817 08003KT

4.000'den fazla havaalanı için hava durumu gözlemleri ve tahminleri (METAR ve TAF raporları).

Kullanılabilir istasyonlar harita üzerinde sarı ve kırmızı noktalarla gösterilir.

İstasyonun adını görmek için fareyi noktanın üzerinde gezdirin.

Sonrasında hava gözlem ve tahminlerini görmek için tıklayın.

Haritayı değiştirmek için: yaklaştırmak için siyah artı işaretli yeşil düğmeye ve uzaklaştırmak için de eksi işaretli düğmeye hızla tıklayın; bitişik haritalar için yeşil okları kullanın.


METAR-TAF: